Time;durP1;ratioP1;P1;durP2;ratioP2;P2;SDS_P1;SDS_P2;PMS_P1;PMS_P2;Temp;Humidity;BMP_temperature;BMP_pressure;BME280_temperature;BME280_humidity;BME280_pressure;Samples;Min_cycle;Max_cycle;Signal;HPM_P1;HPM_P2
2021/08/13 00:02:32;;;;;;;7.68;4.70;;;;;;;19.05;100.00;101681.84;6248165;28;20056;-81
2021/08/13 00:05:33;;;;;;;7.43;4.47;;;;;;;19.01;100.00;101686.56;6247623;28;20060;-81
2021/08/13 00:08:35;;;;;;;6.97;4.78;;;;;;;18.93;100.00;101684.44;6248090;28;20513;-82
2021/08/13 00:11:38;;;;;;;9.98;5.82;;;;;;;18.88;100.00;101680.44;6247892;28;20481;-81
2021/08/13 00:14:40;;;;;;;6.15;4.47;;;;;;;18.89;100.00;101680.31;6246753;28;20053;-82
2021/08/13 00:17:41;;;;;;;10.15;5.20;;;;;;;18.87;100.00;101678.72;6247634;28;20405;-82
2021/08/13 00:20:42;;;;;;;6.70;4.40;;;;;;;18.78;100.00;101676.75;6247912;28;20507;-81
2021/08/13 00:23:44;;;;;;;7.55;4.72;;;;;;;18.65;100.00;101674.94;6247117;28;20056;-82
2021/08/13 00:26:46;;;;;;;6.75;4.80;;;;;;;18.54;100.00;101676.69;6247546;28;20050;-83
2021/08/13 00:29:48;;;;;;;9.90;5.50;;;;;;;18.49;100.00;101675.19;6247425;28;20046;-82
2021/08/13 00:32:49;;;;;;;7.85;4.97;;;;;;;18.41;100.00;101682.03;6247402;28;20060;-81
2021/08/13 00:35:50;;;;;;;7.05;4.43;;;;;;;18.34;100.00;101676.28;6247305;28;20046;-82
2021/08/13 00:38:52;;;;;;;7.70;4.72;;;;;;;18.33;100.00;101679.06;6268284;28;20044;-81
2021/08/13 00:41:55;;;;;;;8.38;5.38;;;;;;;18.31;100.00;101675.69;6279979;28;20052;-81
2021/08/13 00:44:56;;;;;;;7.22;4.80;;;;;;;18.23;100.00;101684.19;6272315;28;20064;-81
2021/08/13 00:47:57;;;;;;;9.80;5.55;;;;;;;18.19;100.00;101674.72;6272434;28;20049;-81
2021/08/13 00:50:59;;;;;;;6.53;4.32;;;;;;;18.12;100.00;101679.63;6271987;28;20408;-81
2021/08/13 00:54:00;;;;;;;8.40;4.50;;;;;;;18.09;100.00;101692.28;6286269;28;20423;-82
2021/08/13 00:57:04;;;;;;;8.60;5.10;;;;;;;18.03;100.00;101684.72;6289117;28;20048;-81
2021/08/13 01:00:07;;;;;;;8.77;4.95;;;;;;;17.96;100.00;101689.63;6296925;28;20044;-81
2021/08/13 01:03:08;;;;;;;7.47;4.63;;;;;;;17.89;100.00;101683.88;6288007;28;20052;-81
2021/08/13 01:06:12;;;;;;;8.35;5.47;;;;;;;17.91;100.00;101686.44;6296218;28;20055;-80
2021/08/13 01:09:13;;;;;;;7.38;4.63;;;;;;;17.89;100.00;101683.03;6297025;28;20051;-81
2021/08/13 01:12:26;;;;;;;9.77;5.25;;;;;;;17.85;100.00;101686.84;6296461;28;20052;-83
2021/08/13 01:15:32;;;;;;;9.70;5.03;;;;;;;17.80;100.00;101695.13;6296594;28;20070;-81
2021/08/13 01:18:38;;;;;;;11.00;5.68;;;;;;;17.78;100.00;101689.09;6296641;28;20507;-81
2021/08/13 01:21:46;;;;;;;8.93;5.22;;;;;;;17.77;100.00;101695.38;6296715;28;20060;-82
2021/08/13 01:24:51;;;;;;;7.50;5.10;;;;;;;17.73;100.00;101693.84;6297017;28;20048;-81
2021/08/13 01:27:56;;;;;;;10.30;5.50;;;;;;;17.65;100.00;101691.69;6301561;28;20049;-81
2021/08/13 01:31:00;;;;;;;10.23;5.28;;;;;;;17.59;100.00;101701.91;6301017;28;20056;-81
2021/08/13 01:34:05;;;;;;;7.28;5.03;;;;;;;17.54;100.00;101693.41;6301079;28;20054;-82
2021/08/13 01:37:08;;;;;;;7.40;5.40;;;;;;;17.53;100.00;101681.03;6300699;28;20406;-80
2021/08/13 01:40:13;;;;;;;7.80;5.82;;;;;;;17.50;100.00;101675.00;6300747;28;20051;-80
2021/08/13 01:43:15;;;;;;;8.45;5.20;;;;;;;17.49;100.00;101675.94;6300974;28;20049;-81
2021/08/13 01:46:17;;;;;;;8.90;4.85;;;;;;;17.46;100.00;101683.28;6300914;28;20075;-82
2021/08/13 01:49:20;;;;;;;8.15;5.28;;;;;;;17.41;100.00;101683.59;6294597;28;20059;-82
2021/08/13 01:52:23;;;;;;;7.57;5.30;;;;;;;17.36;100.00;101679.53;6297722;28;20048;-81
2021/08/13 01:55:25;;;;;;;8.88;5.10;;;;;;;17.33;100.00;101682.38;6288414;28;20082;-82
2021/08/13 01:58:27;;;;;;;8.60;4.68;;;;;;;17.32;100.00;101686.00;6268498;28;20068;-83
2021/08/13 02:01:29;;;;;;;8.18;4.93;;;;;;;17.31;100.00;101689.63;6267930;28;20041;-80
2021/08/13 02:04:33;;;;;;;9.23;5.05;;;;;;;17.27;100.00;101699.59;6267422;28;20484;-81
2021/08/13 02:07:38;;;;;;;8.32;5.40;;;;;;;17.23;100.00;101704.25;6275238;28;20056;-83
2021/08/13 02:10:42;;;;;;;8.07;5.32;;;;;;;17.23;100.00;101698.94;6281378;28;20055;-81
2021/08/13 02:13:44;;;;;;;11.32;5.82;;;;;;;17.21;100.00;101699.97;6300288;28;20522;-82
2021/08/13 02:16:50;;;;;;;7.88;5.28;;;;;;;17.16;100.00;101696.78;6293850;28;20045;-81
2021/08/13 02:19:58;;;;;;;8.80;5.00;;;;;;;17.14;100.00;101693.38;6275359;28;20381;-81
2021/08/13 02:23:00;;;;;;;7.80;5.43;;;;;;;17.11;100.00;101694.44;6275180;28;20045;-83
2021/08/13 02:26:01;;;;;;;9.65;5.82;;;;;;;17.06;100.00;101693.88;6275228;28;20140;-82
2021/08/13 02:29:03;;;;;;;9.38;5.65;;;;;;;17.02;100.00;101684.41;6275181;28;20056;-83
2021/08/13 02:32:06;;;;;;;13.07;6.03;;;;;;;16.98;100.00;101683.75;6274889;28;20072;-83
2021/08/13 02:35:10;;;;;;;10.90;5.68;;;;;;;16.97;100.00;101684.72;6274460;28;20045;-83
2021/08/13 02:38:17;;;;;;;9.25;5.68;;;;;;;16.95;100.00;101691.09;6276272;28;20052;-82
2021/08/13 02:41:19;;;;;;;7.35;4.40;;;;;;;16.96;100.00;101687.47;6272145;28;20389;-81
2021/08/13 02:44:21;;;;;;;9.43;5.38;;;;;;;16.91;100.00;101682.47;6278041;28;20044;-81
2021/08/13 02:47:26;;;;;;;8.27;5.03;;;;;;;16.88;100.00;101680.00;6291214;28;20499;-82
2021/08/13 02:50:32;;;;;;;9.13;5.68;;;;;;;16.86;100.00;101681.06;6299887;28;20059;-83
2021/08/13 02:53:38;;;;;;;8.60;5.35;;;;;;;16.83;100.00;101679.44;6299535;28;20431;-81
2021/08/13 02:56:42;;;;;;;7.60;4.95;;;;;;;16.78;100.00;101676.25;6299718;28;20398;-83
2021/08/13 02:59:46;;;;;;;9.80;5.30;;;;;;;16.73;100.00;101671.22;6299770;28;20044;-81
2021/08/13 03:02:51;;;;;;;8.98;5.90;;;;;;;16.71;100.00;101674.88;6292379;28;20056;-82
2021/08/13 03:05:54;;;;;;;9.57;4.68;;;;;;;16.66;100.00;101680.50;6274724;28;20045;-83
2021/08/13 03:08:57;;;;;;;8.27;4.97;;;;;;;16.65;100.00;101676.13;6274469;28;20424;-82
2021/08/13 03:11:59;;;;;;;11.52;6.18;;;;;;;16.67;100.00;101678.72;6274826;28;20045;-82
2021/08/13 03:15:02;;;;;;;7.97;5.30;;;;;;;16.66;100.00;101685.78;6274166;28;20420;-82
2021/08/13 03:18:04;;;;;;;10.60;5.55;;;;;;;16.63;100.00;101680.72;6274049;28;20440;-82
2021/08/13 03:21:07;;;;;;;9.27;5.32;;;;;;;16.61;100.00;101685.25;6274297;28;20423;-82
2021/08/13 03:24:11;;;;;;;7.70;5.50;;;;;;;16.60;100.00;101688.00;6274390;28;20045;-81
2021/08/13 03:27:12;;;;;;;8.68;5.53;;;;;;;16.57;100.00;101699.66;6274867;28;20052;-82
2021/08/13 03:30:14;;;;;;;12.05;6.20;;;;;;;16.54;100.00;101689.25;6277196;28;20044;-82
2021/08/13 03:33:16;;;;;;;8.88;5.05;;;;;;;16.54;100.00;101683.94;6302887;28;20052;-81
2021/08/13 03:36:19;;;;;;;7.95;5.32;;;;;;;16.54;100.00;101688.41;6304278;28;20051;-81
2021/08/13 03:39:21;;;;;;;8.82;5.25;;;;;;;16.51;100.00;101696.56;6303525;28;20052;-80
2021/08/13 03:42:25;;;;;;;9.25;5.57;;;;;;;16.49;100.00;101696.66;6303079;28;20048;-82
2021/08/13 03:45:27;;;;;;;7.68;5.13;;;;;;;16.46;100.00;101691.53;6271725;28;20052;-83
2021/08/13 03:48:29;;;;;;;11.80;6.07;;;;;;;16.44;100.00;101691.63;6262971;28;20048;-82
2021/08/13 03:51:33;;;;;;;9.88;6.43;;;;;;;16.42;100.00;101695.31;6267863;28;20048;-82
2021/08/13 03:54:35;;;;;;;8.98;5.20;;;;;;;16.39;100.00;101688.41;6295323;28;20051;-82
2021/08/13 03:57:37;;;;;;;9.88;5.43;;;;;;;16.38;100.00;101692.00;6298888;28;20048;-83
2021/08/13 04:00:38;;;;;;;9.85;6.07;;;;;;;16.35;100.00;101686.91;6283941;28;20045;-81
2021/08/13 04:03:39;;;;;;;8.32;5.35;;;;;;;16.33;100.00;101685.28;6267270;28;20040;-80
2021/08/13 04:06:42;;;;;;;10.98;5.43;;;;;;;16.31;100.00;101681.88;6274360;28;20052;-81
2021/08/13 04:09:43;;;;;;;9.45;5.50;;;;;;;16.27;100.00;101681.22;6286269;28;20052;-81
2021/08/13 04:12:45;;;;;;;10.93;5.63;;;;;;;16.26;100.00;101687.47;6287218;28;20063;-82
2021/08/13 04:15:46;;;;;;;8.13;4.93;;;;;;;16.23;100.00;101685.00;6297264;28;20053;-81
2021/08/13 04:18:48;;;;;;;9.80;5.13;;;;;;;16.22;100.00;101689.47;6288481;28;20048;-81
2021/08/13 04:21:50;;;;;;;10.80;5.50;;;;;;;16.24;100.00;101692.88;6297164;28;20613;-82
2021/08/13 04:24:53;;;;;;;7.22;4.90;;;;;;;16.24;100.00;101695.50;6297320;28;20182;-81
2021/08/13 04:27:55;;;;;;;10.18;5.70;;;;;;;16.22;100.00;101681.50;6297521;28;20063;-80
2021/08/13 04:30:56;;;;;;;10.98;5.50;;;;;;;16.22;100.00;101684.16;6285652;28;20037;-81
2021/08/13 04:33:57;;;;;;;15.82;7.32;;;;;;;16.22;100.00;101692.13;6287106;28;20512;-81
2021/08/13 04:37:01;;;;;;;10.77;5.93;;;;;;;16.21;100.00;101695.72;6247706;28;20053;-80
2021/08/13 04:40:03;;;;;;;10.23;6.03;;;;;;;16.21;100.00;101703.69;6247694;28;20042;-80
2021/08/13 04:43:05;;;;;;;8.45;5.55;;;;;;;16.21;100.00;101694.84;6248328;28;20057;-80
2021/08/13 04:46:06;;;;;;;9.93;5.82;;;;;;;16.20;100.00;101691.34;6267258;28;20064;-81
2021/08/13 04:49:07;;;;;;;10.52;6.18;;;;;;;16.19;100.00;101689.66;6272925;28;20055;-80
2021/08/13 04:52:10;;;;;;;7.60;5.10;;;;;;;16.22;100.00;101684.16;6276825;28;20047;-82
2021/08/13 04:55:12;;;;;;;10.10;5.50;;;;;;;16.23;100.00;101683.22;6287412;28;20057;-81
2021/08/13 04:58:13;;;;;;;9.35;5.60;;;;;;;16.24;100.00;101690.22;6283849;28;20053;-80
2021/08/13 05:01:16;;;;;;;8.82;5.90;;;;;;;16.28;100.00;101690.03;6298438;28;20047;-82
2021/08/13 05:04:17;;;;;;;10.57;5.78;;;;;;;16.31;100.00;101690.69;6292464;28;20147;-80
2021/08/13 05:07:20;;;;;;;10.75;6.28;;;;;;;16.37;100.00;101692.09;6300783;28;20412;-82
2021/08/13 05:10:21;;;;;;;10.98;6.03;;;;;;;16.40;100.00;101694.59;6301313;28;20045;-81
2021/08/13 05:13:22;;;;;;;9.30;5.35;;;;;;;16.45;100.00;101692.50;6300714;28;20048;-81
2021/08/13 05:16:24;;;;;;;10.98;5.90;;;;;;;16.46;100.00;101695.03;6289257;28;20491;-79
2021/08/13 05:19:25;;;;;;;7.97;4.97;;;;;;;16.49;100.00;101697.50;6300840;28;20048;-80
2021/08/13 05:22:28;;;;;;;8.45;5.13;;;;;;;16.54;100.00;101699.88;6300378;28;20410;-81
2021/08/13 05:25:29;;;;;;;7.25;5.03;;;;;;;16.56;100.00;101699.75;6300864;28;20048;-81
2021/08/13 05:28:30;;;;;;;7.07;4.70;;;;;;;16.60;100.00;101690.66;6300162;28;20048;-81
2021/08/13 05:31:32;;;;;;;10.93;5.82;;;;;;;16.64;100.00;101689.50;6300673;28;20392;-81
2021/08/13 05:34:33;;;;;;;7.20;4.72;;;;;;;16.66;100.00;101688.44;6274420;28;20609;-81
2021/08/13 05:37:36;;;;;;;8.43;5.28;;;;;;;16.72;100.00;101697.88;6273101;28;20049;-81
2021/08/13 05:40:37;;;;;;;5.63;4.13;;;;;;;16.76;100.00;101698.50;6283686;28;20111;-82
2021/08/13 05:43:38;;;;;;;7.13;4.28;;;;;;;16.80;100.00;101705.34;6289627;28;20056;-80
2021/08/13 05:46:40;;;;;;;6.40;4.03;;;;;;;16.83;100.00;101706.00;6300620;28;20045;-81
2021/08/13 05:49:41;;;;;;;4.63;3.55;;;;;;;16.90;100.00;101701.16;6291561;28;20488;-81
2021/08/13 05:52:44;;;;;;;5.72;3.67;;;;;;;16.95;100.00;101702.56;6298780;28;20041;-80
2021/08/13 05:55:46;;;;;;;4.35;3.00;;;;;;;17.08;100.00;101694.66;6300052;28;20143;-81
2021/08/13 05:58:47;;;;;;;5.43;3.40;;;;;;;17.20;100.00;101698.28;6300787;28;20055;-80
2021/08/13 06:01:48;;;;;;;4.65;2.83;;;;;;;17.29;100.00;101703.00;6299421;28;20040;-80
2021/08/13 06:04:50;;;;;;;7.68;4.47;;;;;;;17.38;100.00;101702.38;6285338;28;20052;-81
2021/08/13 06:07:53;;;;;;;9.00;5.53;;;;;;;17.43;100.00;101694.09;6289102;28;20547;-80
2021/08/13 06:10:54;;;;;;;8.45;4.32;;;;;;;17.41;100.00;101691.56;6285651;28;20511;-81
2021/08/13 06:13:55;;;;;;;6.32;4.22;;;;;;;17.45;100.00;101700.19;6281390;28;20056;-80
2021/08/13 06:16:59;;;;;;;7.95;4.18;;;;;;;17.52;100.00;101693.47;6275254;28;20047;-78
2021/08/13 06:20:01;;;;;;;6.45;3.88;;;;;;;17.54;100.00;101691.59;6291360;28;20045;-81
2021/08/13 06:23:03;;;;;;;6.70;3.78;;;;;;;17.56;100.00;101689.66;6289132;28;20061;-80
2021/08/13 06:26:05;;;;;;;5.43;3.35;;;;;;;17.60;100.00;101693.81;6299429;28;20048;-80
2021/08/13 06:29:06;;;;;;;5.38;2.92;;;;;;;17.66;100.00;101687.22;6282713;28;20056;-80
2021/08/13 06:32:07;;;;;;;6.07;3.50;;;;;;;17.75;100.00;101691.94;6284173;28;20049;-81
2021/08/13 06:35:10;;;;;;;5.25;3.33;;;;;;;17.83;100.00;101696.75;6287172;28;20451;-80
2021/08/13 06:38:12;;;;;;;6.85;3.53;;;;;;;17.88;100.00;101698.13;6293354;28;20049;-80
2021/08/13 06:41:14;;;;;;;6.68;3.03;;;;;;;17.96;100.00;101693.13;6276968;28;20045;-81
2021/08/13 06:44:15;;;;;;;5.65;3.55;;;;;;;18.04;100.00;101692.63;6283468;28;20053;-80
2021/08/13 06:47:16;;;;;;;4.75;2.85;;;;;;;18.13;100.00;101693.78;6285148;28;20088;-81
2021/08/13 06:50:18;;;;;;;4.20;2.80;;;;;;;18.23;100.00;101698.34;6280049;28;20051;-81
2021/08/13 06:53:21;;;;;;;4.65;3.28;;;;;;;18.44;100.00;101695.97;6283911;28;20044;-81
2021/08/13 06:56:22;;;;;;;4.72;2.65;;;;;;;18.59;100.00;101701.16;6290355;28;20045;-81
2021/08/13 06:59:25;;;;;;;4.20;2.95;;;;;;;18.61;100.00;101699.22;6291751;28;20491;-81
2021/08/13 07:02:26;;;;;;;5.18;3.03;;;;;;;18.60;100.00;101702.84;6290966;28;20188;-81
2021/08/13 07:05:27;;;;;;;6.55;3.78;;;;;;;18.60;100.00;101702.84;6287998;28;20422;-81
2021/08/13 07:08:30;;;;;;;4.05;2.95;;;;;;;18.65;100.00;101696.22;6298737;28;20056;-81
2021/08/13 07:11:31;;;;;;;5.30;2.30;;;;;;;18.75;100.00;101691.97;6298847;28;20040;-80
2021/08/13 07:14:32;;;;;;;3.72;2.53;;;;;;;18.79;100.00;101681.09;6297802;28;20044;-80
2021/08/13 07:17:35;;;;;;;4.75;3.15;;;;;;;18.82;100.00;101681.72;6291075;28;20048;-81
2021/08/13 07:20:36;;;;;;;4.40;3.08;;;;;;;18.85;100.00;101691.28;6289626;28;20491;-81
2021/08/13 07:23:39;;;;;;;3.72;2.42;;;;;;;18.88;100.00;101685.75;6297296;28;20053;-78
2021/08/13 07:26:40;;;;;;;5.50;2.42;;;;;;;19.09;100.00;101692.16;6291124;28;20415;-80
2021/08/13 07:29:41;;;;;;;5.35;2.85;;;;;;;19.26;99.13;101685.59;6287457;28;20047;-80
2021/08/13 07:32:44;;;;;;;5.65;3.20;;;;;;;19.38;97.63;101694.47;6283361;28;20041;-81
2021/08/13 07:35:45;;;;;;;4.35;2.65;;;;;;;19.46;97.39;101687.59;6296376;28;20500;-81
2021/08/13 07:38:48;;;;;;;4.10;2.97;;;;;;;19.62;96.04;101695.31;6296311;28;20052;-81
2021/08/13 07:41:49;;;;;;;4.05;2.60;;;;;;;19.71;96.17;101689.28;6289282;28;20059;-80
2021/08/13 07:44:50;;;;;;;4.18;3.03;;;;;;;19.87;93.71;101693.44;6289925;28;20045;-79
2021/08/13 07:47:52;;;;;;;5.07;3.15;;;;;;;20.04;91.90;101684.13;6297243;28;20060;-81
2021/08/13 07:50:53;;;;;;;5.97;3.05;;;;;;;20.19;89.96;101690.91;6297570;28;20142;-81
2021/08/13 07:53:56;;;;;;;6.45;2.40;;;;;;;20.28;91.45;101688.34;6286990;28;20046;-81
2021/08/13 07:56:57;;;;;;;4.35;2.92;;;;;;;20.25;90.77;101690.41;6263552;28;20053;-81
2021/08/13 07:59:58;;;;;;;5.45;2.90;;;;;;;20.36;87.87;101687.75;6256781;28;20446;-81
2021/08/13 08:03:00;;;;;;;15.77;3.85;;;;;;;20.52;86.17;101688.25;6283151;28;20052;-81
2021/08/13 08:06:01;;;;;;;6.50;2.83;;;;;;;20.65;83.12;101688.09;6276151;28;20037;-80
2021/08/13 08:09:04;;;;;;;4.50;2.55;;;;;;;20.70;82.71;101687.72;6297696;28;20064;-80
2021/08/13 08:12:05;;;;;;;4.40;2.53;;;;;;;20.78;83.08;101687.97;6289378;28;20040;-80
2021/08/13 08:15:08;;;;;;;3.33;2.50;;;;;;;20.78;85.31;101694.16;6266612;28;20053;-80
2021/08/13 08:18:10;;;;;;;4.05;2.40;;;;;;;20.72;86.43;101692.00;6287732;28;20439;-81
2021/08/13 08:21:11;;;;;;;3.65;2.60;;;;;;;20.74;88.47;101692.69;6290760;28;20499;-80
2021/08/13 08:24:14;;;;;;;5.20;3.13;;;;;;;20.79;81.05;101684.31;6296688;28;20534;-81
2021/08/13 08:27:15;;;;;;;6.45;3.20;;;;;;;20.89;81.53;101679.06;6297410;28;20052;-80
2021/08/13 08:30:16;;;;;;;2.90;2.30;;;;;;;20.96;82.87;101685.63;6297263;28;20052;-81
2021/08/13 08:33:18;;;;;;;4.28;3.13;;;;;;;21.04;86.15;101688.50;6297119;28;20522;-80
2021/08/13 08:36:19;;;;;;;6.55;3.35;;;;;;;21.08;81.64;101691.78;6299614;28;20127;-81
2021/08/13 08:39:23;;;;;;;8.25;3.20;;;;;;;21.22;78.03;101699.50;6302967;28;20052;-80
2021/08/13 08:42:24;;;;;;;5.13;3.60;;;;;;;21.36;78.15;101701.06;6301645;28;20044;-81
2021/08/13 08:45:27;;;;;;;5.05;2.92;;;;;;;21.63;73.07;101701.41;6301335;28;20045;-80
2021/08/13 08:48:34;;;;;;;6.03;2.95;;;;;;;21.66;73.26;101709.16;6301685;28;20411;-81
2021/08/13 08:51:37;;;;;;;4.85;2.58;;;;;;;21.74;73.01;101703.16;6288634;28;20041;-82
2021/08/13 08:54:43;;;;;;;5.53;3.05;;;;;;;21.83;73.82;101701.50;6287587;28;20048;-81
2021/08/13 08:57:45;;;;;;;5.25;2.80;;;;;;;21.92;74.32;101693.53;6291012;28;20076;-82
2021/08/13 09:00:47;;;;;;;5.80;3.08;;;;;;;22.08;72.10;101695.75;6301415;28;20063;-81
2021/08/13 09:03:49;;;;;;;5.93;2.85;;;;;;;22.10;73.69;101691.09;6301602;28;20056;-81
2021/08/13 09:06:51;;;;;;;6.47;3.22;;;;;;;22.19;72.93;101695.69;6301530;28;20048;-82
2021/08/13 09:09:54;;;;;;;4.50;3.00;;;;;;;22.21;73.51;101696.41;6301472;28;20569;-81
2021/08/13 09:12:55;;;;;;;3.92;2.47;;;;;;;22.33;73.69;101688.28;6290206;28;20041;-82
2021/08/13 09:16:09;;;;;;;9.48;2.80;;;;;;;22.37;74.00;101693.22;6300460;28;20056;-82
2021/08/13 09:19:11;;;;;;;5.85;2.72;;;;;;;22.41;75.11;101699.16;6301234;28;20049;-81
2021/08/13 09:22:14;;;;;;;5.05;2.78;;;;;;;22.41;74.93;101688.44;6254454;28;20045;-82
2021/08/13 09:25:26;;;;;;;6.18;2.90;;;;;;;22.43;73.16;101690.00;6251085;28;20056;-81
2021/08/13 09:28:39;;;;;;;6.57;3.15;;;;;;;22.45;72.37;101693.41;6251211;28;20061;-81
2021/08/13 09:31:40;;;;;;;5.25;2.90;;;;;;;22.47;72.76;101691.41;6251234;28;20053;-82
2021/08/13 09:34:42;;;;;;;3.95;2.40;;;;;;;22.54;71.49;101697.94;6250803;28;20404;-82
2021/08/13 09:37:49;;;;;;;6.05;2.80;;;;;;;22.71;68.77;101691.09;6251538;28;20061;-79
2021/08/13 09:40:52;;;;;;;4.15;2.60;;;;;;;22.84;68.36;101681.91;6251364;28;20073;-81
2021/08/13 09:43:56;;;;;;;3.90;2.53;;;;;;;22.91;69.35;101675.91;6251126;28;20500;-81
2021/08/13 09:46:59;;;;;;;4.50;2.90;;;;;;;22.89;68.69;101675.22;6250579;28;20054;-80
2021/08/13 09:50:01;;;;;;;4.25;2.42;;;;;;;22.99;68.48;101688.63;6251168;28;20509;-81
2021/08/13 09:53:07;;;;;;;3.72;2.55;;;;;;;23.10;66.82;101693.84;6251159;28;20045;-82
2021/08/13 09:56:25;;;;;;;7.30;2.90;;;;;;;23.00;69.57;101696.50;6250981;28;20056;-82
2021/08/13 09:59:26;;;;;;;5.07;2.70;;;;;;;23.04;68.16;101697.09;6251415;28;20052;-82
2021/08/13 10:02:33;;;;;;;5.05;2.55;;;;;;;23.10;68.24;101693.00;6251165;28;20515;-83
2021/08/13 10:05:34;;;;;;;3.42;2.65;;;;;;;23.16;68.45;101701.31;6250980;28;20053;-83
2021/08/13 10:08:44;;;;;;;5.05;2.47;;;;;;;23.29;67.69;101693.81;6251587;28;20052;-83
2021/08/13 10:11:55;;;;;;;4.55;3.00;;;;;;;23.35;68.96;101697.81;6250715;28;20046;-83
2021/08/13 10:14:58;;;;;;;5.65;2.55;;;;;;;23.37;66.70;101695.81;6250479;28;20060;-82
2021/08/13 10:18:00;;;;;;;4.22;2.45;;;;;;;23.38;67.14;101692.13;6250705;28;20053;-82
2021/08/13 10:21:02;;;;;;;4.35;2.72;;;;;;;23.33;67.68;101691.72;6250778;28;20072;-83
2021/08/13 10:24:05;;;;;;;4.90;2.85;;;;;;;23.42;67.20;101682.81;6250310;28;20045;-80
2021/08/13 10:27:08;;;;;;;5.22;2.70;;;;;;;23.55;65.82;101675.31;6250391;28;20054;-82
2021/08/13 10:30:11;;;;;;;6.43;2.05;;;;;;;23.51;68.49;101683.78;6250307;28;20051;-81
2021/08/13 10:33:14;;;;;;;4.18;2.05;;;;;;;23.47;66.95;101677.03;6250595;28;20052;-82
2021/08/13 10:36:17;;;;;;;5.32;2.92;;;;;;;23.43;66.64;101678.28;6250272;28;20046;-80
2021/08/13 10:39:21;;;;;;;5.30;2.70;;;;;;;23.46;66.89;101668.13;6249879;28;20390;-82
2021/08/13 10:42:26;;;;;;;5.68;2.70;;;;;;;23.56;67.94;101662.75;6249907;28;20068;-79
2021/08/13 10:45:32;;;;;;;3.30;2.20;;;;;;;23.60;68.63;101660.63;6257391;28;20057;-81
2021/08/13 10:48:37;;;;;;;6.13;2.42;;;;;;;23.72;66.14;101649.63;6287764;28;20048;-80
2021/08/13 10:51:38;;;;;;;5.30;2.60;;;;;;;23.84;67.53;101649.44;6299574;28;20049;-80
2021/08/13 10:54:41;;;;;;;3.45;2.55;;;;;;;23.86;66.22;101650.16;6298893;28;20056;-77
2021/08/13 10:57:59;;;;;;;3.53;2.65;;;;;;;23.87;66.72;101647.31;6276621;28;20495;-78
2021/08/13 11:01:08;;;;;;;4.80;2.50;;;;;;;23.91;66.12;101654.06;6287411;28;20480;-79
2021/08/13 11:04:10;;;;;;;5.35;2.60;;;;;;;24.13;66.63;101650.19;6297552;28;20169;-77
2021/08/13 11:07:13;;;;;;;4.50;2.70;;;;;;;24.38;66.00;101648.66;6287294;28;20056;-79
2021/08/13 11:10:46;;;;;;;3.95;2.70;;;;;;;24.57;62.21;101644.16;6280099;28;20128;-74
2021/08/13 11:13:49;;;;;;;8.02;3.22;;;;;;;24.69;62.89;101634.88;6285475;28;20677;-77
2021/08/13 11:16:51;;;;;;;3.63;2.50;;;;;;;24.82;64.88;101637.22;6285290;28;20055;-78
2021/08/13 11:19:57;;;;;;;3.58;2.22;;;;;;;24.97;63.33;101633.81;6296994;28;20049;-77
2021/08/13 11:23:02;;;;;;;2.53;1.95;;;;;;;25.07;61.91;101639.13;6290580;28;20491;-79
2021/08/13 11:26:04;;;;;;;4.28;2.17;;;;;;;25.00;59.28;101625.44;6290430;28;20040;-81
2021/08/13 11:29:34;;;;;;;3.75;2.45;;;;;;;25.06;61.10;101626.66;6298885;28;20052;-78
2021/08/13 11:32:36;;;;;;;4.75;2.75;;;;;;;25.25;64.31;101631.06;6298280;28;20049;-82
2021/08/13 11:35:38;;;;;;;5.22;2.83;;;;;;;25.35;58.61;101623.75;6297931;28;20060;-80
2021/08/13 11:39:01;;;;;;;3.65;2.50;;;;;;;25.33;60.96;101620.38;6299120;28;20052;-77
2021/08/13 11:42:05;;;;;;;4.00;2.67;;;;;;;25.54;60.16;101625.41;6298092;28;20045;-81
2021/08/13 11:45:10;;;;;;;5.93;2.75;;;;;;;25.60;58.10;101630.13;6298126;28;20044;-82
2021/08/13 11:48:13;;;;;;;4.18;2.70;;;;;;;25.40;60.09;101623.28;6297801;28;20470;-80
2021/08/13 11:51:14;;;;;;;5.70;2.33;;;;;;;25.26;60.95;101625.53;6298116;28;20055;-81
2021/08/13 11:54:27;;;;;;;4.07;2.53;;;;;;;25.58;60.67;101623.25;6297886;28;20044;-80
2021/08/13 11:57:28;;;;;;;3.63;2.53;;;;;;;25.82;60.88;101626.09;6298133;28;20056;-79
2021/08/13 12:00:33;;;;;;;6.30;2.70;;;;;;;25.90;60.23;101626.16;6297422;28;20051;-80
2021/08/13 12:03:34;;;;;;;4.50;3.00;;;;;;;26.12;59.49;101637.38;6297413;28;20044;-80
2021/08/13 12:06:35;;;;;;;4.97;2.88;;;;;;;25.96;60.73;101633.56;6297827;28;20052;-81
2021/08/13 12:09:39;;;;;;;3.85;2.67;;;;;;;25.79;59.97;101629.94;6298186;28;20048;-81
2021/08/13 12:12:41;;;;;;;5.38;2.70;;;;;;;25.69;59.57;101637.25;6298480;28;20062;-83
2021/08/13 12:15:44;;;;;;;4.05;2.40;;;;;;;25.39;60.42;101645.78;6297643;28;20396;-82
2021/08/13 12:18:46;;;;;;;4.63;3.25;;;;;;;25.48;60.56;101640.34;6297814;28;20059;-84
2021/08/13 12:21:58;;;;;;;5.28;3.00;;;;;;;25.51;60.07;101650.78;6297311;28;20187;-83
2021/08/13 12:25:01;;;;;;;4.68;2.85;;;;;;;25.38;61.16;101647.66;6297511;28;20048;-80
2021/08/13 12:28:03;;;;;;;4.35;2.75;;;;;;;25.39;62.53;101651.19;6297720;28;20056;-81
2021/08/13 12:31:08;;;;;;;3.40;2.50;;;;;;;25.43;60.75;101641.78;6297821;28;20052;-78
2021/08/13 12:34:21;;;;;;;4.63;2.90;;;;;;;25.59;60.97;101636.53;6298141;28;20056;-79
2021/08/13 12:37:22;;;;;;;4.65;3.17;;;;;;;25.91;60.16;101635.06;6297476;28;20048;-81
2021/08/13 12:40:24;;;;;;;5.07;2.50;;;;;;;25.98;58.20;101626.19;6299179;28;20052;-79
2021/08/13 12:43:26;;;;;;;5.22;3.15;;;;;;;26.17;58.96;101629.66;6297809;28;20044;-80
2021/08/13 12:46:32;;;;;;;4.95;2.95;;;;;;;26.11;60.42;101638.34;6296035;28;20052;-81
2021/08/13 12:49:35;;;;;;;3.45;2.30;;;;;;;26.06;58.88;101636.16;6290164;28;20057;-82
2021/08/13 12:52:37;;;;;;;4.53;2.65;;;;;;;25.96;60.28;101640.81;6288784;28;20166;-83
2021/08/13 12:55:41;;;;;;;3.63;2.38;;;;;;;26.09;57.97;101638.53;6296906;28;20053;-83
2021/08/13 12:58:43;;;;;;;3.35;2.05;;;;;;;26.21;57.29;101641.78;6296985;28;20429;-79
2021/08/13 13:01:55;;;;;;;4.18;2.30;;;;;;;26.29;56.97;101639.94;6297575;28;20053;-81
2021/08/13 13:05:06;;;;;;;4.32;2.30;;;;;;;26.39;57.86;101626.34;6296084;28;20392;-81
2021/08/13 13:08:08;;;;;;;4.80;2.75;;;;;;;26.25;59.51;101637.72;6296317;28;20052;-82
2021/08/13 13:11:22;;;;;;;4.40;2.22;;;;;;;26.15;60.18;101635.19;6297126;28;20051;-78
2021/08/13 13:14:34;;;;;;;3.10;2.45;;;;;;;26.62;59.93;101636.56;6296762;28;20110;-78
2021/08/13 13:17:53;;;;;;;3.20;2.28;;;;;;;26.99;57.55;101653.13;6298037;28;20091;-77
2021/08/13 13:20:54;;;;;;;4.82;2.53;;;;;;;26.81;58.58;101647.88;6298259;28;20048;-80
2021/08/13 13:23:59;;;;;;;7.05;2.78;;;;;;;26.37;58.25;101639.13;6280940;28;20051;-80
2021/08/13 13:27:03;;;;;;;4.90;2.85;;;;;;;26.07;60.76;101643.22;6280269;28;20512;-78
2021/08/13 13:30:25;;;;;;;4.53;2.30;;;;;;;25.98;62.22;101633.41;6288772;28;20104;-78
2021/08/13 13:33:28;;;;;;;4.68;3.08;;;;;;;25.86;61.90;101645.50;6302560;28;20048;-79
2021/08/13 13:36:30;;;;;;;3.80;2.33;;;;;;;25.97;61.29;101646.03;6290557;28;20052;-80
2021/08/13 13:39:31;;;;;;;4.25;2.72;;;;;;;25.84;59.71;101644.78;6302156;28;20052;-80
2021/08/13 13:42:34;;;;;;;5.40;2.85;;;;;;;25.68;61.59;101635.59;6301163;28;20052;-78
2021/08/13 13:45:37;;;;;;;4.90;3.08;;;;;;;25.72;61.87;101646.88;6301125;28;20053;-82
2021/08/13 13:48:41;;;;;;;4.05;2.65;;;;;;;25.64;61.29;101644.97;6300743;28;20415;-78
2021/08/13 13:51:42;;;;;;;6.57;2.45;;;;;;;25.68;61.09;101642.81;6300944;28;20048;-84
2021/08/13 13:54:43;;;;;;;3.40;2.42;;;;;;;25.56;62.34;101650.31;6300080;28;20051;-79
2021/08/13 13:57:44;;;;;;;5.32;3.10;;;;;;;25.74;62.30;101653.78;6300744;28;20048;-80
2021/08/13 14:00:46;;;;;;;5.90;3.25;;;;;;;25.69;60.88;101650.72;6301007;28;20056;-82
2021/08/13 14:03:48;;;;;;;5.72;2.85;;;;;;;25.59;58.67;101654.53;6296948;28;20423;-77
2021/08/13 14:06:50;;;;;;;3.15;2.40;;;;;;;25.73;60.83;101648.56;6263984;28;20052;-78